sensor_id;sensor_type;location;lat;lon;timestamp;pressure;altitude;pressure_sealevel;temperature
19282;BMP180;9774;52.034;5.342;2023-03-11T00:01:51;100456.00;;;7.70
19282;BMP180;9774;52.034;5.342;2023-03-11T00:04:18;100457.00;;;7.70
19282;BMP180;9774;52.034;5.342;2023-03-11T00:06:45;100458.00;;;7.70
19282;BMP180;9774;52.034;5.342;2023-03-11T00:09:13;100469.00;;;7.70
19282;BMP180;9774;52.034;5.342;2023-03-11T00:11:40;100461.00;;;7.60
19282;BMP180;9774;52.034;5.342;2023-03-11T00:14:07;100463.00;;;7.60
19282;BMP180;9774;52.034;5.342;2023-03-11T00:16:36;100464.00;;;7.60
19282;BMP180;9774;52.034;5.342;2023-03-11T00:19:03;100469.00;;;7.60
19282;BMP180;9774;52.034;5.342;2023-03-11T00:21:31;100473.00;;;7.50
19282;BMP180;9774;52.034;5.342;2023-03-11T00:23:58;100474.00;;;7.50
19282;BMP180;9774;52.034;5.342;2023-03-11T00:26:28;100469.00;;;7.50
19282;BMP180;9774;52.034;5.342;2023-03-11T00:28:55;100476.00;;;7.50
19282;BMP180;9774;52.034;5.342;2023-03-11T00:31:23;100484.00;;;7.50
19282;BMP180;9774;52.034;5.342;2023-03-11T00:33:53;100481.00;;;7.40
19282;BMP180;9774;52.034;5.342;2023-03-11T00:36:28;100486.00;;;7.40
19282;BMP180;9774;52.034;5.342;2023-03-11T00:38:57;100491.00;;;7.40
19282;BMP180;9774;52.034;5.342;2023-03-11T00:41:25;100500.00;;;7.50
19282;BMP180;9774;52.034;5.342;2023-03-11T00:43:52;100496.00;;;7.50
19282;BMP180;9774;52.034;5.342;2023-03-11T00:46:19;100502.00;;;7.50
19282;BMP180;9774;52.034;5.342;2023-03-11T00:48:48;100511.00;;;7.50
19282;BMP180;9774;52.034;5.342;2023-03-11T00:51:17;100519.00;;;7.50
19282;BMP180;9774;52.034;5.342;2023-03-11T00:53:45;100512.00;;;7.50
19282;BMP180;9774;52.034;5.342;2023-03-11T00:56:14;100516.00;;;7.60
19282;BMP180;9774;52.034;5.342;2023-03-11T00:58:43;100520.00;;;7.60
19282;BMP180;9774;52.034;5.342;2023-03-11T01:01:14;100515.00;;;7.60
19282;BMP180;9774;52.034;5.342;2023-03-11T01:03:42;100519.00;;;7.60
19282;BMP180;9774;52.034;5.342;2023-03-11T01:06:09;100521.00;;;7.60
19282;BMP180;9774;52.034;5.342;2023-03-11T01:08:39;100530.00;;;7.60
19282;BMP180;9774;52.034;5.342;2023-03-11T01:11:07;100526.00;;;7.60
19282;BMP180;9774;52.034;5.342;2023-03-11T01:13:35;100532.00;;;7.60
19282;BMP180;9774;52.034;5.342;2023-03-11T01:16:03;100531.00;;;7.60
19282;BMP180;9774;52.034;5.342;2023-03-11T01:18:30;100535.00;;;7.60
19282;BMP180;9774;52.034;5.342;2023-03-11T01:20:57;100546.00;;;7.60
19282;BMP180;9774;52.034;5.342;2023-03-11T01:23:25;100544.00;;;7.60
19282;BMP180;9774;52.034;5.342;2023-03-11T01:25:54;100545.00;;;7.60
19282;BMP180;9774;52.034;5.342;2023-03-11T01:28:21;100548.00;;;7.60
19282;BMP180;9774;52.034;5.342;2023-03-11T01:30:48;100553.00;;;7.60
19282;BMP180;9774;52.034;5.342;2023-03-11T01:33:18;100551.00;;;7.50
19282;BMP180;9774;52.034;5.342;2023-03-11T01:35:46;100550.00;;;7.50
19282;BMP180;9774;52.034;5.342;2023-03-11T01:38:14;100556.00;;;7.60
19282;BMP180;9774;52.034;5.342;2023-03-11T01:40:43;100552.00;;;7.60
19282;BMP180;9774;52.034;5.342;2023-03-11T01:43:50;100549.00;;;7.50
19282;BMP180;9774;52.034;5.342;2023-03-11T01:46:22;100565.00;;;7.50
19282;BMP180;9774;52.034;5.342;2023-03-11T01:48:51;100555.00;;;7.60
19282;BMP180;9774;52.034;5.342;2023-03-11T01:51:23;100552.00;;;7.50
19282;BMP180;9774;52.034;5.342;2023-03-11T01:53:52;100559.00;;;7.60
19282;BMP180;9774;52.034;5.342;2023-03-11T01:56:21;100560.00;;;7.60
19282;BMP180;9774;52.034;5.342;2023-03-11T01:58:51;100553.00;;;7.60
19282;BMP180;9774;52.034;5.342;2023-03-11T02:01:20;100563.00;;;7.60
19282;BMP180;9774;52.034;5.342;2023-03-11T02:03:48;100565.00;;;7.60
19282;BMP180;9774;52.034;5.342;2023-03-11T02:06:18;100568.00;;;7.50
19282;BMP180;9774;52.034;5.342;2023-03-11T02:08:47;100567.00;;;7.60
19282;BMP180;9774;52.034;5.342;2023-03-11T02:11:17;100552.00;;;7.50
19282;BMP180;9774;52.034;5.342;2023-03-11T02:13:45;100551.00;;;7.50
19282;BMP180;9774;52.034;5.342;2023-03-11T02:16:15;100561.00;;;7.50
19282;BMP180;9774;52.034;5.342;2023-03-11T02:18:42;100560.00;;;7.50
19282;BMP180;9774;52.034;5.342;2023-03-11T02:21:21;100566.00;;;7.40
19282;BMP180;9774;52.034;5.342;2023-03-11T02:23:56;100571.00;;;7.40
19282;BMP180;9774;52.034;5.342;2023-03-11T02:26:29;100574.00;;;7.40
19282;BMP180;9774;52.034;5.342;2023-03-11T02:29:02;100579.00;;;7.30
19282;BMP180;9774;52.034;5.342;2023-03-11T02:31:31;100587.00;;;7.30
19282;BMP180;9774;52.034;5.342;2023-03-11T02:34:01;100581.00;;;7.30
19282;BMP180;9774;52.034;5.342;2023-03-11T02:36:32;100586.00;;;7.30
19282;BMP180;9774;52.034;5.342;2023-03-11T02:39:00;100576.00;;;7.30
19282;BMP180;9774;52.034;5.342;2023-03-11T02:41:28;100571.00;;;7.30
19282;BMP180;9774;52.034;5.342;2023-03-11T02:43:59;100576.00;;;7.20
19282;BMP180;9774;52.034;5.342;2023-03-11T02:46:27;100570.00;;;7.20
19282;BMP180;9774;52.034;5.342;2023-03-11T02:48:55;100572.00;;;7.20
19282;BMP180;9774;52.034;5.342;2023-03-11T02:51:23;100576.00;;;7.20
19282;BMP180;9774;52.034;5.342;2023-03-11T02:53:54;100574.00;;;7.20
19282;BMP180;9774;52.034;5.342;2023-03-11T02:56:23;100571.00;;;7.20
19282;BMP180;9774;52.034;5.342;2023-03-11T02:58:50;100566.00;;;7.10
19282;BMP180;9774;52.034;5.342;2023-03-11T03:01:19;100573.00;;;7.10
19282;BMP180;9774;52.034;5.342;2023-03-11T03:03:46;100575.00;;;7.10
19282;BMP180;9774;52.034;5.342;2023-03-11T03:06:14;100576.00;;;7.10
19282;BMP180;9774;52.034;5.342;2023-03-11T03:08:41;100571.00;;;7.10
19282;BMP180;9774;52.034;5.342;2023-03-11T03:11:09;100582.00;;;7.10
19282;BMP180;9774;52.034;5.342;2023-03-11T03:13:36;100590.00;;;7.10
19282;BMP180;9774;52.034;5.342;2023-03-11T03:16:04;100590.00;;;7.00
19282;BMP180;9774;52.034;5.342;2023-03-11T03:18:33;100599.00;;;7.00
19282;BMP180;9774;52.034;5.342;2023-03-11T03:21:00;100596.00;;;7.00
19282;BMP180;9774;52.034;5.342;2023-03-11T03:23:28;100600.00;;;7.00
19282;BMP180;9774;52.034;5.342;2023-03-11T03:26:00;100599.00;;;6.90
19282;BMP180;9774;52.034;5.342;2023-03-11T03:28:27;100606.00;;;6.90
19282;BMP180;9774;52.034;5.342;2023-03-11T03:30:55;100616.00;;;6.90
19282;BMP180;9774;52.034;5.342;2023-03-11T03:33:22;100613.00;;;6.90
19282;BMP180;9774;52.034;5.342;2023-03-11T03:35:51;100625.00;;;6.80
19282;BMP180;9774;52.034;5.342;2023-03-11T03:38:18;100617.00;;;6.80
19282;BMP180;9774;52.034;5.342;2023-03-11T03:40:46;100621.00;;;6.80
19282;BMP180;9774;52.034;5.342;2023-03-11T03:43:13;100626.00;;;6.80
19282;BMP180;9774;52.034;5.342;2023-03-11T03:45:40;100633.00;;;6.80
19282;BMP180;9774;52.034;5.342;2023-03-11T03:48:08;100636.00;;;6.70
19282;BMP180;9774;52.034;5.342;2023-03-11T03:50:35;100639.00;;;6.70
19282;BMP180;9774;52.034;5.342;2023-03-11T03:53:04;100635.00;;;6.70
19282;BMP180;9774;52.034;5.342;2023-03-11T03:55:31;100637.00;;;6.60
19282;BMP180;9774;52.034;5.342;2023-03-11T03:57:58;100642.00;;;6.60
19282;BMP180;9774;52.034;5.342;2023-03-11T04:00:26;100646.00;;;6.60
19282;BMP180;9774;52.034;5.342;2023-03-11T04:02:53;100646.00;;;6.60
19282;BMP180;9774;52.034;5.342;2023-03-11T04:05:20;100644.00;;;6.50
19282;BMP180;9774;52.034;5.342;2023-03-11T04:07:51;100654.00;;;6.50
19282;BMP180;9774;52.034;5.342;2023-03-11T04:10:20;100655.00;;;6.50
19282;BMP180;9774;52.034;5.342;2023-03-11T04:12:47;100658.00;;;6.50
19282;BMP180;9774;52.034;5.342;2023-03-11T04:15:14;100665.00;;;6.50
19282;BMP180;9774;52.034;5.342;2023-03-11T04:17:42;100660.00;;;6.40
19282;BMP180;9774;52.034;5.342;2023-03-11T04:20:10;100659.00;;;6.40
19282;BMP180;9774;52.034;5.342;2023-03-11T04:22:37;100653.00;;;6.40
19282;BMP180;9774;52.034;5.342;2023-03-11T04:25:06;100655.00;;;6.40
19282;BMP180;9774;52.034;5.342;2023-03-11T04:27:34;100660.00;;;6.30
19282;BMP180;9774;52.034;5.342;2023-03-11T04:30:04;100657.00;;;6.30
19282;BMP180;9774;52.034;5.342;2023-03-11T04:32:31;100656.00;;;6.30
19282;BMP180;9774;52.034;5.342;2023-03-11T04:34:58;100661.00;;;6.30
19282;BMP180;9774;52.034;5.342;2023-03-11T04:37:27;100657.00;;;6.30
19282;BMP180;9774;52.034;5.342;2023-03-11T04:39:55;100662.00;;;6.30
19282;BMP180;9774;52.034;5.342;2023-03-11T04:42:22;100661.00;;;6.30
19282;BMP180;9774;52.034;5.342;2023-03-11T04:44:50;100663.00;;;6.20
19282;BMP180;9774;52.034;5.342;2023-03-11T04:47:18;100667.00;;;6.20
19282;BMP180;9774;52.034;5.342;2023-03-11T04:49:46;100665.00;;;6.20
19282;BMP180;9774;52.034;5.342;2023-03-11T04:52:14;100668.00;;;6.20
19282;BMP180;9774;52.034;5.342;2023-03-11T04:54:41;100672.00;;;6.20
19282;BMP180;9774;52.034;5.342;2023-03-11T04:57:08;100681.00;;;6.20
19282;BMP180;9774;52.034;5.342;2023-03-11T04:59:36;100684.00;;;6.20
19282;BMP180;9774;52.034;5.342;2023-03-11T05:02:05;100690.00;;;6.20
19282;BMP180;9774;52.034;5.342;2023-03-11T05:04:32;100686.00;;;6.20
19282;BMP180;9774;52.034;5.342;2023-03-11T05:07:00;100680.00;;;6.20
19282;BMP180;9774;52.034;5.342;2023-03-11T05:09:27;100680.00;;;6.10
19282;BMP180;9774;52.034;5.342;2023-03-11T05:11:55;100684.00;;;6.10
19282;BMP180;9774;52.034;5.342;2023-03-11T05:14:22;100677.00;;;6.10
19282;BMP180;9774;52.034;5.342;2023-03-11T05:16:50;100684.00;;;6.10
19282;BMP180;9774;52.034;5.342;2023-03-11T05:19:18;100681.00;;;6.00
19282;BMP180;9774;52.034;5.342;2023-03-11T05:22:00;100683.00;;;6.00
19282;BMP180;9774;52.034;5.342;2023-03-11T05:24:28;100683.00;;;6.00
19282;BMP180;9774;52.034;5.342;2023-03-11T05:26:56;100682.00;;;6.00
19282;BMP180;9774;52.034;5.342;2023-03-11T05:29:23;100701.00;;;6.00
19282;BMP180;9774;52.034;5.342;2023-03-11T05:31:51;100701.00;;;6.00
19282;BMP180;9774;52.034;5.342;2023-03-11T05:34:21;100699.00;;;5.90
19282;BMP180;9774;52.034;5.342;2023-03-11T05:36:48;100692.00;;;5.90
19282;BMP180;9774;52.034;5.342;2023-03-11T05:39:15;100696.00;;;5.90
19282;BMP180;9774;52.034;5.342;2023-03-11T05:41:43;100705.00;;;5.90
19282;BMP180;9774;52.034;5.342;2023-03-11T05:44:10;100708.00;;;5.90
19282;BMP180;9774;52.034;5.342;2023-03-11T05:46:37;100716.00;;;5.90
19282;BMP180;9774;52.034;5.342;2023-03-11T05:49:04;100711.00;;;5.80
19282;BMP180;9774;52.034;5.342;2023-03-11T05:51:33;100712.00;;;5.80
19282;BMP180;9774;52.034;5.342;2023-03-11T05:54:01;100717.00;;;5.80
19282;BMP180;9774;52.034;5.342;2023-03-11T05:56:28;100714.00;;;5.80
19282;BMP180;9774;52.034;5.342;2023-03-11T05:58:57;100722.00;;;5.80
19282;BMP180;9774;52.034;5.342;2023-03-11T06:01:24;100723.00;;;5.80
19282;BMP180;9774;52.034;5.342;2023-03-11T06:03:51;100734.00;;;5.70
19282;BMP180;9774;52.034;5.342;2023-03-11T06:06:19;100731.00;;;5.70
19282;BMP180;9774;52.034;5.342;2023-03-11T06:08:47;100734.00;;;5.70
19282;BMP180;9774;52.034;5.342;2023-03-11T06:11:15;100740.00;;;5.70
19282;BMP180;9774;52.034;5.342;2023-03-11T06:13:43;100742.00;;;5.70
19282;BMP180;9774;52.034;5.342;2023-03-11T06:16:11;100747.00;;;5.70
19282;BMP180;9774;52.034;5.342;2023-03-11T06:18:39;100749.00;;;5.70
19282;BMP180;9774;52.034;5.342;2023-03-11T06:21:06;100753.00;;;5.70
19282;BMP180;9774;52.034;5.342;2023-03-11T06:23:34;100748.00;;;5.70
19282;BMP180;9774;52.034;5.342;2023-03-11T06:26:04;100755.00;;;5.60
19282;BMP180;9774;52.034;5.342;2023-03-11T06:28:32;100752.00;;;5.70
19282;BMP180;9774;52.034;5.342;2023-03-11T06:31:06;100758.00;;;5.60
19282;BMP180;9774;52.034;5.342;2023-03-11T06:33:34;100762.00;;;5.70
19282;BMP180;9774;52.034;5.342;2023-03-11T06:36:03;100760.00;;;5.60
19282;BMP180;9774;52.034;5.342;2023-03-11T06:38:31;100775.00;;;5.70
19282;BMP180;9774;52.034;5.342;2023-03-11T06:40:59;100770.00;;;5.70
19282;BMP180;9774;52.034;5.342;2023-03-11T06:43:28;100777.00;;;5.70
19282;BMP180;9774;52.034;5.342;2023-03-11T06:45:56;100774.00;;;5.70
19282;BMP180;9774;52.034;5.342;2023-03-11T06:48:24;100774.00;;;5.70
19282;BMP180;9774;52.034;5.342;2023-03-11T06:50:55;100774.00;;;5.70
19282;BMP180;9774;52.034;5.342;2023-03-11T06:53:22;100776.00;;;5.80
19282;BMP180;9774;52.034;5.342;2023-03-11T06:56:04;100778.00;;;5.70
19282;BMP180;9774;52.034;5.342;2023-03-11T06:58:34;100783.00;;;5.80
19282;BMP180;9774;52.034;5.342;2023-03-11T07:01:03;100775.00;;;5.80
19282;BMP180;9774;52.034;5.342;2023-03-11T07:03:31;100786.00;;;5.90
19282;BMP180;9774;52.034;5.342;2023-03-11T07:05:59;100800.00;;;5.90
19282;BMP180;9774;52.034;5.342;2023-03-11T07:08:26;100804.00;;;6.00
19282;BMP180;9774;52.034;5.342;2023-03-11T07:11:02;100812.00;;;5.90
19282;BMP180;9774;52.034;5.342;2023-03-11T07:13:31;100814.00;;;6.00
19282;BMP180;9774;52.034;5.342;2023-03-11T07:16:00;100805.00;;;6.10
19282;BMP180;9774;52.034;5.342;2023-03-11T07:18:27;100800.00;;;6.10
19282;BMP180;9774;52.034;5.342;2023-03-11T07:20:55;100816.00;;;6.20
19282;BMP180;9774;52.034;5.342;2023-03-11T07:23:22;100806.00;;;6.20
19282;BMP180;9774;52.034;5.342;2023-03-11T07:25:49;100805.00;;;6.20
19282;BMP180;9774;52.034;5.342;2023-03-11T07:28:17;100818.00;;;6.30
19282;BMP180;9774;52.034;5.342;2023-03-11T07:30:46;100829.00;;;6.30
19282;BMP180;9774;52.034;5.342;2023-03-11T07:33:15;100833.00;;;6.40
19282;BMP180;9774;52.034;5.342;2023-03-11T07:35:43;100829.00;;;6.50
19282;BMP180;9774;52.034;5.342;2023-03-11T07:38:10;100834.00;;;6.50
19282;BMP180;9774;52.034;5.342;2023-03-11T07:40:38;100832.00;;;6.60
19282;BMP180;9774;52.034;5.342;2023-03-11T07:43:05;100824.00;;;6.60
19282;BMP180;9774;52.034;5.342;2023-03-11T07:45:32;100838.00;;;6.70
19282;BMP180;9774;52.034;5.342;2023-03-11T07:48:01;100844.00;;;6.70
19282;BMP180;9774;52.034;5.342;2023-03-11T07:50:28;100835.00;;;6.80
19282;BMP180;9774;52.034;5.342;2023-03-11T07:52:55;100845.00;;;6.90
19282;BMP180;9774;52.034;5.342;2023-03-11T07:55:23;100853.00;;;6.90
19282;BMP180;9774;52.034;5.342;2023-03-11T07:57:50;100856.00;;;7.00
19282;BMP180;9774;52.034;5.342;2023-03-11T08:00:18;100855.00;;;7.00
19282;BMP180;9774;52.034;5.342;2023-03-11T08:02:45;100857.00;;;7.10
19282;BMP180;9774;52.034;5.342;2023-03-11T08:05:14;100859.00;;;7.20
19282;BMP180;9774;52.034;5.342;2023-03-11T08:07:43;100862.00;;;7.20
19282;BMP180;9774;52.034;5.342;2023-03-11T08:10:11;100865.00;;;7.30
19282;BMP180;9774;52.034;5.342;2023-03-11T08:12:38;100863.00;;;7.40
19282;BMP180;9774;52.034;5.342;2023-03-11T08:15:07;100865.00;;;7.40
19282;BMP180;9774;52.034;5.342;2023-03-11T08:17:34;100872.00;;;7.50
19282;BMP180;9774;52.034;5.342;2023-03-11T08:20:02;100870.00;;;7.60
19282;BMP180;9774;52.034;5.342;2023-03-11T08:22:35;100874.00;;;7.60
19282;BMP180;9774;52.034;5.342;2023-03-11T08:25:02;100874.00;;;7.70
19282;BMP180;9774;52.034;5.342;2023-03-11T08:27:30;100876.00;;;7.80
19282;BMP180;9774;52.034;5.342;2023-03-11T08:29:57;100872.00;;;7.90
19282;BMP180;9774;52.034;5.342;2023-03-11T08:32:25;100877.00;;;7.90
19282;BMP180;9774;52.034;5.342;2023-03-11T08:34:56;100886.00;;;8.00
19282;BMP180;9774;52.034;5.342;2023-03-11T08:37:23;100886.00;;;8.10
19282;BMP180;9774;52.034;5.342;2023-03-11T08:39:52;100884.00;;;8.20
19282;BMP180;9774;52.034;5.342;2023-03-11T08:42:19;100892.00;;;8.30
19282;BMP180;9774;52.034;5.342;2023-03-11T08:44:47;100896.00;;;8.30
19282;BMP180;9774;52.034;5.342;2023-03-11T08:47:14;100896.00;;;8.40
19282;BMP180;9774;52.034;5.342;2023-03-11T08:49:41;100903.00;;;8.50
19282;BMP180;9774;52.034;5.342;2023-03-11T08:52:08;100903.00;;;8.50
19282;BMP180;9774;52.034;5.342;2023-03-11T08:54:36;100896.00;;;8.60
19282;BMP180;9774;52.034;5.342;2023-03-11T08:57:04;100899.00;;;8.70
19282;BMP180;9774;52.034;5.342;2023-03-11T08:59:32;100906.00;;;8.70
19282;BMP180;9774;52.034;5.342;2023-03-11T09:01:59;100897.00;;;8.80
19282;BMP180;9774;52.034;5.342;2023-03-11T09:04:26;100915.00;;;8.90
19282;BMP180;9774;52.034;5.342;2023-03-11T09:06:53;100921.00;;;9.00
19282;BMP180;9774;52.034;5.342;2023-03-11T09:09:21;100928.00;;;9.10
19282;BMP180;9774;52.034;5.342;2023-03-11T09:11:48;100926.00;;;9.20
19282;BMP180;9774;52.034;5.342;2023-03-11T09:14:17;100925.00;;;9.30
19282;BMP180;9774;52.034;5.342;2023-03-11T09:16:44;100926.00;;;9.40
19282;BMP180;9774;52.034;5.342;2023-03-11T09:19:11;100926.00;;;9.50
19282;BMP180;9774;52.034;5.342;2023-03-11T09:21:39;100927.00;;;9.60
19282;BMP180;9774;52.034;5.342;2023-03-11T09:24:07;100935.00;;;9.80
19282;BMP180;9774;52.034;5.342;2023-03-11T09:26:34;100935.00;;;9.90
19282;BMP180;9774;52.034;5.342;2023-03-11T09:29:02;100941.00;;;10.00
19282;BMP180;9774;52.034;5.342;2023-03-11T09:31:30;100942.00;;;10.00
19282;BMP180;9774;52.034;5.342;2023-03-11T09:33:57;100943.00;;;10.10
19282;BMP180;9774;52.034;5.342;2023-03-11T09:36:25;100929.00;;;10.20
19282;BMP180;9774;52.034;5.342;2023-03-11T09:38:52;100935.00;;;10.30
19282;BMP180;9774;52.034;5.342;2023-03-11T09:41:27;100927.00;;;10.40
19282;BMP180;9774;52.034;5.342;2023-03-11T09:44:07;100921.00;;;10.50
19282;BMP180;9774;52.034;5.342;2023-03-11T09:49:54;100931.00;;;10.60
19282;BMP180;9774;52.034;5.342;2023-03-11T09:52:32;100936.00;;;10.80
19282;BMP180;9774;52.034;5.342;2023-03-11T09:55:03;100932.00;;;10.90
19282;BMP180;9774;52.034;5.342;2023-03-11T09:57:33;100933.00;;;11.00
19282;BMP180;9774;52.034;5.342;2023-03-11T10:00:04;100941.00;;;11.10
19282;BMP180;9774;52.034;5.342;2023-03-11T10:02:32;100942.00;;;11.30
19282;BMP180;9774;52.034;5.342;2023-03-11T10:05:07;100935.00;;;11.30
19282;BMP180;9774;52.034;5.342;2023-03-11T10:07:40;100950.00;;;11.40
19282;BMP180;9774;52.034;5.342;2023-03-11T10:10:11;100946.00;;;11.50
19282;BMP180;9774;52.034;5.342;2023-03-11T10:12:46;100955.00;;;11.70
19282;BMP180;9774;52.034;5.342;2023-03-11T10:15:22;100954.00;;;11.80
19282;BMP180;9774;52.034;5.342;2023-03-11T10:18:04;100961.00;;;11.80
19282;BMP180;9774;52.034;5.342;2023-03-11T10:20:44;100956.00;;;11.90
19282;BMP180;9774;52.034;5.342;2023-03-11T10:23:21;100961.00;;;12.00
19282;BMP180;9774;52.034;5.342;2023-03-11T10:25:58;100960.00;;;12.10
19282;BMP180;9774;52.034;5.342;2023-03-11T10:28:30;100970.00;;;12.20
19282;BMP180;9774;52.034;5.342;2023-03-11T10:31:04;100960.00;;;12.30
19282;BMP180;9774;52.034;5.342;2023-03-11T10:33:37;100954.00;;;12.30
19282;BMP180;9774;52.034;5.342;2023-03-11T10:36:11;100960.00;;;12.40
19282;BMP180;9774;52.034;5.342;2023-03-11T10:38:41;100958.00;;;12.40
19282;BMP180;9774;52.034;5.342;2023-03-11T10:41:16;100957.00;;;12.50
19282;BMP180;9774;52.034;5.342;2023-03-11T10:43:46;100957.00;;;12.50
19282;BMP180;9774;52.034;5.342;2023-03-11T10:46:19;100949.00;;;12.50
19282;BMP180;9774;52.034;5.342;2023-03-11T10:48:46;100964.00;;;12.60
19282;BMP180;9774;52.034;5.342;2023-03-11T10:51:17;100956.00;;;12.60
19282;BMP180;9774;52.034;5.342;2023-03-11T10:53:49;100953.00;;;12.60
19282;BMP180;9774;52.034;5.342;2023-03-11T10:56:28;100956.00;;;12.50
19282;BMP180;9774;52.034;5.342;2023-03-11T10:58:56;100952.00;;;12.60
19282;BMP180;9774;52.034;5.342;2023-03-11T11:01:24;100960.00;;;12.60
19282;BMP180;9774;52.034;5.342;2023-03-11T11:03:55;100951.00;;;12.60
19282;BMP180;9774;52.034;5.342;2023-03-11T11:06:26;100955.00;;;12.60
19282;BMP180;9774;52.034;5.342;2023-03-11T11:09:09;100960.00;;;12.60
19282;BMP180;9774;52.034;5.342;2023-03-11T11:11:39;100961.00;;;12.70
19282;BMP180;9774;52.034;5.342;2023-03-11T11:14:07;100965.00;;;12.80
19282;BMP180;9774;52.034;5.342;2023-03-11T11:16:35;100951.00;;;12.80
19282;BMP180;9774;52.034;5.342;2023-03-11T11:19:06;100973.00;;;12.90
19282;BMP180;9774;52.034;5.342;2023-03-11T11:21:37;100967.00;;;12.90
19282;BMP180;9774;52.034;5.342;2023-03-11T11:24:15;100963.00;;;12.90
19282;BMP180;9774;52.034;5.342;2023-03-11T11:27:02;100963.00;;;12.90
19282;BMP180;9774;52.034;5.342;2023-03-11T11:29:30;100970.00;;;13.00
19282;BMP180;9774;52.034;5.342;2023-03-11T11:32:16;100965.00;;;12.90
19282;BMP180;9774;52.034;5.342;2023-03-11T11:34:54;100959.00;;;12.90
19282;BMP180;9774;52.034;5.342;2023-03-11T11:37:25;100965.00;;;13.00
19282;BMP180;9774;52.034;5.342;2023-03-11T11:39:58;100969.00;;;13.10
19282;BMP180;9774;52.034;5.342;2023-03-11T11:42:30;100972.00;;;13.10
19282;BMP180;9774;52.034;5.342;2023-03-11T11:45:01;100971.00;;;13.10
19282;BMP180;9774;52.034;5.342;2023-03-11T11:47:33;100965.00;;;13.20
19282;BMP180;9774;52.034;5.342;2023-03-11T11:50:02;100967.00;;;13.20
19282;BMP180;9774;52.034;5.342;2023-03-11T11:52:35;100967.00;;;13.20
19282;BMP180;9774;52.034;5.342;2023-03-11T11:55:06;100973.00;;;13.30
19282;BMP180;9774;52.034;5.342;2023-03-11T11:57:43;100966.00;;;13.30
19282;BMP180;9774;52.034;5.342;2023-03-11T12:00:19;100973.00;;;13.30
19282;BMP180;9774;52.034;5.342;2023-03-11T12:03:01;100974.00;;;13.20
19282;BMP180;9774;52.034;5.342;2023-03-11T12:05:32;100979.00;;;13.30
19282;BMP180;9774;52.034;5.342;2023-03-11T12:08:11;100972.00;;;13.20
19282;BMP180;9774;52.034;5.342;2023-03-11T12:10:43;100972.00;;;13.30
19282;BMP180;9774;52.034;5.342;2023-03-11T12:16:22;100972.00;;;13.30
19282;BMP180;9774;52.034;5.342;2023-03-11T12:18:55;100970.00;;;13.40
19282;BMP180;9774;52.034;5.342;2023-03-11T12:21:39;100966.00;;;13.30
19282;BMP180;9774;52.034;5.342;2023-03-11T12:24:31;100970.00;;;13.30
19282;BMP180;9774;52.034;5.342;2023-03-11T12:27:07;100970.00;;;13.40
19282;BMP180;9774;52.034;5.342;2023-03-11T12:29:40;100959.00;;;13.50
19282;BMP180;9774;52.034;5.342;2023-03-11T12:32:21;100959.00;;;13.40
19282;BMP180;9774;52.034;5.342;2023-03-11T12:34:49;100957.00;;;13.50
19282;BMP180;9774;52.034;5.342;2023-03-11T12:37:20;100955.00;;;13.50
19282;BMP180;9774;52.034;5.342;2023-03-11T12:39:50;100959.00;;;13.50
19282;BMP180;9774;52.034;5.342;2023-03-11T12:42:19;100954.00;;;13.50
19282;BMP180;9774;52.034;5.342;2023-03-11T12:44:48;100955.00;;;13.50
19282;BMP180;9774;52.034;5.342;2023-03-11T12:47:25;100950.00;;;13.50
19282;BMP180;9774;52.034;5.342;2023-03-11T12:49:55;100955.00;;;13.50
19282;BMP180;9774;52.034;5.342;2023-03-11T12:52:25;100957.00;;;13.60
19282;BMP180;9774;52.034;5.342;2023-03-11T12:55:28;100960.00;;;13.50
19282;BMP180;9774;52.034;5.342;2023-03-11T13:00:52;100961.00;;;13.70
19282;BMP180;9774;52.034;5.342;2023-03-11T13:03:42;100959.00;;;13.70
19282;BMP180;9774;52.034;5.342;2023-03-11T13:09:13;100960.00;;;13.90
19282;BMP180;9774;52.034;5.342;2023-03-11T13:11:44;100959.00;;;14.00
19282;BMP180;9774;52.034;5.342;2023-03-11T13:14:32;100957.00;;;14.00
19282;BMP180;9774;52.034;5.342;2023-03-11T13:17:24;100961.00;;;14.10
19282;BMP180;9774;52.034;5.342;2023-03-11T13:19:53;100949.00;;;14.30
19282;BMP180;9774;52.034;5.342;2023-03-11T13:25:39;100967.00;;;14.90
19282;BMP180;9774;52.034;5.342;2023-03-11T13:28:23;100957.00;;;15.20
19282;BMP180;9774;52.034;5.342;2023-03-11T13:30:58;100957.00;;;15.60
19282;BMP180;9774;52.034;5.342;2023-03-11T13:33:44;100958.00;;;16.20
19282;BMP180;9774;52.034;5.342;2023-03-11T13:42:01;100956.00;;;18.90
19282;BMP180;9774;52.034;5.342;2023-03-11T13:44:34;100956.00;;;19.70
19282;BMP180;9774;52.034;5.342;2023-03-11T13:47:06;100960.00;;;20.60
19282;BMP180;9774;52.034;5.342;2023-03-11T13:49:38;100971.00;;;21.30
19282;BMP180;9774;52.034;5.342;2023-03-11T13:52:11;100972.00;;;21.90
19282;BMP180;9774;52.034;5.342;2023-03-11T13:54:46;100975.00;;;22.50
19282;BMP180;9774;52.034;5.342;2023-03-11T13:57:23;100976.00;;;22.90
19282;BMP180;9774;52.034;5.342;2023-03-11T13:59:53;100983.00;;;23.30
19282;BMP180;9774;52.034;5.342;2023-03-11T14:02:23;100979.00;;;23.50
19282;BMP180;9774;52.034;5.342;2023-03-11T14:04:54;100983.00;;;23.50
19282;BMP180;9774;52.034;5.342;2023-03-11T14:07:28;100985.00;;;23.50
19282;BMP180;9774;52.034;5.342;2023-03-11T14:10:18;100990.00;;;23.50
19282;BMP180;9774;52.034;5.342;2023-03-11T14:12:46;100992.00;;;23.80
19282;BMP180;9774;52.034;5.342;2023-03-11T14:15:18;100988.00;;;24.00
19282;BMP180;9774;52.034;5.342;2023-03-11T14:17:46;100989.00;;;24.20
19282;BMP180;9774;52.034;5.342;2023-03-11T14:20:15;100995.00;;;24.30
19282;BMP180;9774;52.034;5.342;2023-03-11T14:22:44;100998.00;;;24.30
19282;BMP180;9774;52.034;5.342;2023-03-11T14:25:17;101006.00;;;24.20
19282;BMP180;9774;52.034;5.342;2023-03-11T14:27:52;101010.00;;;24.10
19282;BMP180;9774;52.034;5.342;2023-03-11T14:30:25;101008.00;;;24.00
19282;BMP180;9774;52.034;5.342;2023-03-11T14:32:58;101005.00;;;23.90
19282;BMP180;9774;52.034;5.342;2023-03-11T14:35:26;101002.00;;;24.00
19282;BMP180;9774;52.034;5.342;2023-03-11T14:37:54;101012.00;;;24.20
19282;BMP180;9774;52.034;5.342;2023-03-11T14:40:24;101006.00;;;24.20
19282;BMP180;9774;52.034;5.342;2023-03-11T14:42:52;101012.00;;;24.10
19282;BMP180;9774;52.034;5.342;2023-03-11T14:45:23;101010.00;;;23.90
19282;BMP180;9774;52.034;5.342;2023-03-11T14:47:55;101006.00;;;23.50
19282;BMP180;9774;52.034;5.342;2023-03-11T14:50:24;101006.00;;;23.10
19282;BMP180;9774;52.034;5.342;2023-03-11T14:52:55;101006.00;;;22.70
19282;BMP180;9774;52.034;5.342;2023-03-11T14:55:28;101005.00;;;22.20